sensor_id;sensor_type;location;lat;lon;timestamp;temperature;humidity
11423;DHT22;5768;51.476;7.210;2022-09-28T00:00:28;10.60;23.70
11423;DHT22;5768;51.476;7.210;2022-09-28T00:05:32;10.50;23.60
11423;DHT22;5768;51.476;7.210;2022-09-28T00:10:34;10.50;24.40
11423;DHT22;5768;51.476;7.210;2022-09-28T00:15:37;10.40;23.80
11423;DHT22;5768;51.476;7.210;2022-09-28T00:20:40;10.50;23.50
11423;DHT22;5768;51.476;7.210;2022-09-28T00:25:43;10.50;23.20
11423;DHT22;5768;51.476;7.210;2022-09-28T00:30:45;10.50;23.00
11423;DHT22;5768;51.476;7.210;2022-09-28T00:35:55;10.40;22.90
11423;DHT22;5768;51.476;7.210;2022-09-28T00:40:57;10.30;23.30
11423;DHT22;5768;51.476;7.210;2022-09-28T00:46:02;10.10;23.40
11423;DHT22;5768;51.476;7.210;2022-09-28T00:51:12;10.20;23.00
11423;DHT22;5768;51.476;7.210;2022-09-28T00:56:16;10.30;23.00
11423;DHT22;5768;51.476;7.210;2022-09-28T01:01:22;10.30;22.50
11423;DHT22;5768;51.476;7.210;2022-09-28T01:06:28;10.30;22.30
11423;DHT22;5768;51.476;7.210;2022-09-28T01:11:35;10.20;22.10
11423;DHT22;5768;51.476;7.210;2022-09-28T01:16:43;10.30;21.80
11423;DHT22;5768;51.476;7.210;2022-09-28T01:21:58;10.00;22.40
11423;DHT22;5768;51.476;7.210;2022-09-28T01:27:19;10.10;23.00
11423;DHT22;5768;51.476;7.210;2022-09-28T01:32:35;10.00;22.80
11423;DHT22;5768;51.476;7.210;2022-09-28T01:37:46;10.20;22.60
11423;DHT22;5768;51.476;7.210;2022-09-28T01:42:58;10.10;22.80
11423;DHT22;5768;51.476;7.210;2022-09-28T01:48:05;10.00;22.20
11423;DHT22;5768;51.476;7.210;2022-09-28T01:53:15;10.00;22.60
11423;DHT22;5768;51.476;7.210;2022-09-28T01:58:27;10.10;22.40
11423;DHT22;5768;51.476;7.210;2022-09-28T02:03:37;10.10;22.30
11423;DHT22;5768;51.476;7.210;2022-09-28T02:08:47;10.20;22.00
11423;DHT22;5768;51.476;7.210;2022-09-28T02:13:59;10.20;22.30
11423;DHT22;5768;51.476;7.210;2022-09-28T02:19:05;10.10;22.30
11423;DHT22;5768;51.476;7.210;2022-09-28T02:24:15;10.10;22.30
11423;DHT22;5768;51.476;7.210;2022-09-28T02:29:24;10.00;22.90
11423;DHT22;5768;51.476;7.210;2022-09-28T02:34:26;9.90;23.10
11423;DHT22;5768;51.476;7.210;2022-09-28T02:39:28;9.90;23.30
11423;DHT22;5768;51.476;7.210;2022-09-28T02:44:54;9.90;22.90
11423;DHT22;5768;51.476;7.210;2022-09-28T02:50:10;9.90;23.60
11423;DHT22;5768;51.476;7.210;2022-09-28T02:55:23;10.00;23.30
11423;DHT22;5768;51.476;7.210;2022-09-28T03:00:41;10.00;22.70
11423;DHT22;5768;51.476;7.210;2022-09-28T03:05:52;10.10;22.70
11423;DHT22;5768;51.476;7.210;2022-09-28T03:11:04;10.20;22.10
11423;DHT22;5768;51.476;7.210;2022-09-28T03:16:13;10.30;22.00
11423;DHT22;5768;51.476;7.210;2022-09-28T03:21:17;10.20;22.00
11423;DHT22;5768;51.476;7.210;2022-09-28T03:26:19;10.10;22.00
11423;DHT22;5768;51.476;7.210;2022-09-28T03:31:23;9.90;22.20
11423;DHT22;5768;51.476;7.210;2022-09-28T03:36:25;9.90;22.60
11423;DHT22;5768;51.476;7.210;2022-09-28T03:41:27;9.90;23.00
11423;DHT22;5768;51.476;7.210;2022-09-28T03:46:31;9.80;22.40
11423;DHT22;5768;51.476;7.210;2022-09-28T03:51:33;9.90;22.40
11423;DHT22;5768;51.476;7.210;2022-09-28T03:56:35;9.80;22.70
11423;DHT22;5768;51.476;7.210;2022-09-28T04:01:39;10.00;21.90
11423;DHT22;5768;51.476;7.210;2022-09-28T04:06:41;9.80;22.10
11423;DHT22;5768;51.476;7.210;2022-09-28T04:11:45;9.90;21.80
11423;DHT22;5768;51.476;7.210;2022-09-28T04:16:49;10.10;21.50
11423;DHT22;5768;51.476;7.210;2022-09-28T04:21:53;10.10;21.30
11423;DHT22;5768;51.476;7.210;2022-09-28T04:26:56;10.10;21.30
11423;DHT22;5768;51.476;7.210;2022-09-28T04:32:19;9.80;22.10
11423;DHT22;5768;51.476;7.210;2022-09-28T04:37:22;9.80;22.80
11423;DHT22;5768;51.476;7.210;2022-09-28T04:42:24;9.90;22.40
11423;DHT22;5768;51.476;7.210;2022-09-28T04:47:28;9.80;22.90
11423;DHT22;5768;51.476;7.210;2022-09-28T04:52:30;9.90;22.70
11423;DHT22;5768;51.476;7.210;2022-09-28T04:57:33;10.00;22.80
11423;DHT22;5768;51.476;7.210;2022-09-28T05:02:37;10.00;22.40
11423;DHT22;5768;51.476;7.210;2022-09-28T05:07:39;10.00;22.30
11423;DHT22;5768;51.476;7.210;2022-09-28T05:12:41;10.00;22.70
11423;DHT22;5768;51.476;7.210;2022-09-28T05:17:45;9.90;22.30
11423;DHT22;5768;51.476;7.210;2022-09-28T05:22:47;9.90;22.40
11423;DHT22;5768;51.476;7.210;2022-09-28T05:27:53;10.10;22.10
11423;DHT22;5768;51.476;7.210;2022-09-28T05:32:58;9.90;22.10
11423;DHT22;5768;51.476;7.210;2022-09-28T05:38:02;9.90;22.60
11423;DHT22;5768;51.476;7.210;2022-09-28T05:43:05;10.20;21.90
11423;DHT22;5768;51.476;7.210;2022-09-28T05:48:08;10.20;22.20
11423;DHT22;5768;51.476;7.210;2022-09-28T05:53:10;10.40;21.60
11423;DHT22;5768;51.476;7.210;2022-09-28T05:58:12;10.10;20.90
11423;DHT22;5768;51.476;7.210;2022-09-28T06:03:16;10.40;20.70
11423;DHT22;5768;51.476;7.210;2022-09-28T06:08:18;10.30;20.70
11423;DHT22;5768;51.476;7.210;2022-09-28T06:13:20;10.40;20.70
11423;DHT22;5768;51.476;7.210;2022-09-28T06:18:24;10.50;20.40
11423;DHT22;5768;51.476;7.210;2022-09-28T06:23:26;10.70;20.30
11423;DHT22;5768;51.476;7.210;2022-09-28T06:28:28;10.90;20.00
11423;DHT22;5768;51.476;7.210;2022-09-28T06:33:32;10.90;20.00
11423;DHT22;5768;51.476;7.210;2022-09-28T06:38:35;10.90;19.80
11423;DHT22;5768;51.476;7.210;2022-09-28T06:43:37;10.60;20.30
11423;DHT22;5768;51.476;7.210;2022-09-28T06:48:41;10.50;21.00
11423;DHT22;5768;51.476;7.210;2022-09-28T06:53:44;10.70;20.60
11423;DHT22;5768;51.476;7.210;2022-09-28T06:58:46;10.60;20.70
11423;DHT22;5768;51.476;7.210;2022-09-28T07:03:50;10.50;21.10
11423;DHT22;5768;51.476;7.210;2022-09-28T07:08:52;10.50;21.60
11423;DHT22;5768;51.476;7.210;2022-09-28T07:13:54;10.60;21.70
11423;DHT22;5768;51.476;7.210;2022-09-28T07:18:58;10.70;21.50
11423;DHT22;5768;51.476;7.210;2022-09-28T07:24:00;10.80;21.60
11423;DHT22;5768;51.476;7.210;2022-09-28T07:29:03;11.00;21.20
11423;DHT22;5768;51.476;7.210;2022-09-28T07:34:06;11.00;20.90
11423;DHT22;5768;51.476;7.210;2022-09-28T07:39:09;10.90;20.70
11423;DHT22;5768;51.476;7.210;2022-09-28T07:44:11;10.90;21.00
11423;DHT22;5768;51.476;7.210;2022-09-28T07:49:15;10.80;21.30
11423;DHT22;5768;51.476;7.210;2022-09-28T07:54:18;10.90;21.20
11423;DHT22;5768;51.476;7.210;2022-09-28T07:59:20;10.80;21.50
11423;DHT22;5768;51.476;7.210;2022-09-28T08:04:24;10.80;21.30
11423;DHT22;5768;51.476;7.210;2022-09-28T08:09:27;10.70;21.20
11423;DHT22;5768;51.476;7.210;2022-09-28T08:14:30;10.80;21.20
11423;DHT22;5768;51.476;7.210;2022-09-28T08:19:35;10.60;21.40
11423;DHT22;5768;51.476;7.210;2022-09-28T08:24:55;10.60;21.00
11423;DHT22;5768;51.476;7.210;2022-09-28T08:29:57;10.60;21.10
11423;DHT22;5768;51.476;7.210;2022-09-28T08:35:00;11.00;20.60
11423;DHT22;5768;51.476;7.210;2022-09-28T08:40:03;11.00;20.70
11423;DHT22;5768;51.476;7.210;2022-09-28T08:45:09;10.90;20.00
11423;DHT22;5768;51.476;7.210;2022-09-28T08:50:21;11.30;20.10
11423;DHT22;5768;51.476;7.210;2022-09-28T08:55:29;11.60;19.70
11423;DHT22;5768;51.476;7.210;2022-09-28T09:00:38;11.90;19.10
11423;DHT22;5768;51.476;7.210;2022-09-28T09:05:54;12.00;18.70
11423;DHT22;5768;51.476;7.210;2022-09-28T09:11:11;11.60;18.90
11423;DHT22;5768;51.476;7.210;2022-09-28T09:16:31;11.80;19.20
11423;DHT22;5768;51.476;7.210;2022-09-28T09:21:46;11.80;18.80
11423;DHT22;5768;51.476;7.210;2022-09-28T09:27:12;11.70;18.90
11423;DHT22;5768;51.476;7.210;2022-09-28T09:32:36;11.60;19.40
11423;DHT22;5768;51.476;7.210;2022-09-28T09:38:06;11.80;18.80
11423;DHT22;5768;51.476;7.210;2022-09-28T09:43:37;12.50;18.30
11423;DHT22;5768;51.476;7.210;2022-09-28T09:48:57;12.40;17.90
11423;DHT22;5768;51.476;7.210;2022-09-28T09:54:11;12.80;17.70
11423;DHT22;5768;51.476;7.210;2022-09-28T09:59:22;13.00;17.00
11423;DHT22;5768;51.476;7.210;2022-09-28T10:04:31;12.80;17.00
11423;DHT22;5768;51.476;7.210;2022-09-28T10:09:42;12.90;16.80
11423;DHT22;5768;51.476;7.210;2022-09-28T10:14:47;12.90;16.70
11423;DHT22;5768;51.476;7.210;2022-09-28T10:19:49;13.40;16.50
11423;DHT22;5768;51.476;7.210;2022-09-28T10:24:54;13.40;16.30
11423;DHT22;5768;51.476;7.210;2022-09-28T10:29:59;13.30;16.50
11423;DHT22;5768;51.476;7.210;2022-09-28T10:35:21;13.40;16.50
11423;DHT22;5768;51.476;7.210;2022-09-28T10:40:32;13.30;16.10
11423;DHT22;5768;51.476;7.210;2022-09-28T10:45:41;13.50;16.30
11423;DHT22;5768;51.476;7.210;2022-09-28T10:50:56;13.50;16.10
11423;DHT22;5768;51.476;7.210;2022-09-28T10:56:04;13.60;16.10
11423;DHT22;5768;51.476;7.210;2022-09-28T11:01:10;14.10;15.90
11423;DHT22;5768;51.476;7.210;2022-09-28T11:06:15;14.80;15.60
11423;DHT22;5768;51.476;7.210;2022-09-28T11:11:26;14.40;15.50
11423;DHT22;5768;51.476;7.210;2022-09-28T11:16:33;14.50;15.70
11423;DHT22;5768;51.476;7.210;2022-09-28T11:21:41;14.30;15.90
11423;DHT22;5768;51.476;7.210;2022-09-28T11:26:49;14.40;15.80
11423;DHT22;5768;51.476;7.210;2022-09-28T11:31:59;15.00;15.50
11423;DHT22;5768;51.476;7.210;2022-09-28T11:43:02;15.50;15.20
11423;DHT22;5768;51.476;7.210;2022-09-28T11:48:17;15.80;14.70
11423;DHT22;5768;51.476;7.210;2022-09-28T11:53:28;15.80;14.60
11423;DHT22;5768;51.476;7.210;2022-09-28T11:58:39;16.40;14.50
11423;DHT22;5768;51.476;7.210;2022-09-28T12:03:48;16.60;14.40
11423;DHT22;5768;51.476;7.210;2022-09-28T12:08:55;16.00;14.50
11423;DHT22;5768;51.476;7.210;2022-09-28T12:14:11;15.10;14.60
11423;DHT22;5768;51.476;7.210;2022-09-28T12:19:24;14.60;15.10
11423;DHT22;5768;51.476;7.210;2022-09-28T12:24:35;14.50;15.60
11423;DHT22;5768;51.476;7.210;2022-09-28T12:29:44;14.10;15.80
11423;DHT22;5768;51.476;7.210;2022-09-28T12:34:50;13.80;16.10
11423;DHT22;5768;51.476;7.210;2022-09-28T12:40:14;13.80;16.30
11423;DHT22;5768;51.476;7.210;2022-09-28T12:45:51;13.70;16.70
11423;DHT22;5768;51.476;7.210;2022-09-28T12:51:11;13.90;16.20
11423;DHT22;5768;51.476;7.210;2022-09-28T12:56:29;13.80;16.20
11423;DHT22;5768;51.476;7.210;2022-09-28T13:01:56;14.20;16.30
11423;DHT22;5768;51.476;7.210;2022-09-28T13:07:27;14.50;16.00
11423;DHT22;5768;51.476;7.210;2022-09-28T13:12:46;15.30;15.40
11423;DHT22;5768;51.476;7.210;2022-09-28T13:18:13;16.10;15.10
11423;DHT22;5768;51.476;7.210;2022-09-28T13:23:21;16.10;14.90
11423;DHT22;5768;51.476;7.210;2022-09-28T13:28:27;16.60;14.50
11423;DHT22;5768;51.476;7.210;2022-09-28T13:33:33;17.00;14.20
11423;DHT22;5768;51.476;7.210;2022-09-28T13:38:46;16.90;14.20
11423;DHT22;5768;51.476;7.210;2022-09-28T13:44:17;18.70;13.80
11423;DHT22;5768;51.476;7.210;2022-09-28T13:49:42;20.10;12.80
11423;DHT22;5768;51.476;7.210;2022-09-28T13:55:09;23.40;11.60
11423;DHT22;5768;51.476;7.210;2022-09-28T14:00:24;24.20;10.80
11423;DHT22;5768;51.476;7.210;2022-09-28T14:06:07;25.60;10.30
11423;DHT22;5768;51.476;7.210;2022-09-28T14:11:58;23.50;10.60
11423;DHT22;5768;51.476;7.210;2022-09-28T14:23:20;24.10;10.80
11423;DHT22;5768;51.476;7.210;2022-09-28T14:28:44;23.60;10.60
11423;DHT22;5768;51.476;7.210;2022-09-28T14:34:00;21.50;11.10
11423;DHT22;5768;51.476;7.210;2022-09-28T14:39:20;19.70;11.70
11423;DHT22;5768;51.476;7.210;2022-09-28T14:50:41;17.10;13.30
11423;DHT22;5768;51.476;7.210;2022-09-28T14:55:47;16.10;13.70
11423;DHT22;5768;51.476;7.210;2022-09-28T15:00:59;15.70;14.00
11423;DHT22;5768;51.476;7.210;2022-09-28T15:06:03;15.40;14.30
11423;DHT22;5768;51.476;7.210;2022-09-28T15:11:11;15.80;14.30
11423;DHT22;5768;51.476;7.210;2022-09-28T15:16:16;15.60;14.60
11423;DHT22;5768;51.476;7.210;2022-09-28T15:21:22;15.60;14.60
11423;DHT22;5768;51.476;7.210;2022-09-28T15:26:34;15.60;14.70
11423;DHT22;5768;51.476;7.210;2022-09-28T15:31:36;15.30;14.70
11423;DHT22;5768;51.476;7.210;2022-09-28T15:36:40;15.10;14.80
11423;DHT22;5768;51.476;7.210;2022-09-28T15:41:48;15.10;15.00
11423;DHT22;5768;51.476;7.210;2022-09-28T15:47:04;15.00;15.20
11423;DHT22;5768;51.476;7.210;2022-09-28T15:52:22;15.10;15.30
11423;DHT22;5768;51.476;7.210;2022-09-28T15:57:32;14.70;15.50
11423;DHT22;5768;51.476;7.210;2022-09-28T16:02:37;14.60;15.30
11423;DHT22;5768;51.476;7.210;2022-09-28T16:07:44;14.50;15.30
11423;DHT22;5768;51.476;7.210;2022-09-28T16:12:56;14.50;15.00
11423;DHT22;5768;51.476;7.210;2022-09-28T16:18:15;14.00;15.00
11423;DHT22;5768;51.476;7.210;2022-09-28T16:23:23;14.00;15.10
11423;DHT22;5768;51.476;7.210;2022-09-28T16:28:49;14.00;15.20
11423;DHT22;5768;51.476;7.210;2022-09-28T16:33:57;14.20;15.10
11423;DHT22;5768;51.476;7.210;2022-09-28T16:39:01;14.10;15.10
11423;DHT22;5768;51.476;7.210;2022-09-28T16:44:14;14.00;15.30
11423;DHT22;5768;51.476;7.210;2022-09-28T16:49:23;13.90;15.30
11423;DHT22;5768;51.476;7.210;2022-09-28T16:54:27;13.70;15.60
11423;DHT22;5768;51.476;7.210;2022-09-28T16:59:48;13.50;15.90
11423;DHT22;5768;51.476;7.210;2022-09-28T17:04:51;13.10;16.20
11423;DHT22;5768;51.476;7.210;2022-09-28T17:09:53;13.00;16.50
11423;DHT22;5768;51.476;7.210;2022-09-28T17:14:56;13.00;16.40
11423;DHT22;5768;51.476;7.210;2022-09-28T17:20:00;13.10;16.40
11423;DHT22;5768;51.476;7.210;2022-09-28T17:25:16;12.70;16.60
11423;DHT22;5768;51.476;7.210;2022-09-28T17:30:20;12.50;16.50
11423;DHT22;5768;51.476;7.210;2022-09-28T17:35:22;12.50;16.80
11423;DHT22;5768;51.476;7.210;2022-09-28T17:40:26;12.20;17.10
11423;DHT22;5768;51.476;7.210;2022-09-28T17:45:32;12.20;17.50
11423;DHT22;5768;51.476;7.210;2022-09-28T17:50:38;12.00;17.70
11423;DHT22;5768;51.476;7.210;2022-09-28T17:55:42;11.90;18.00
11423;DHT22;5768;51.476;7.210;2022-09-28T18:00:46;11.80;18.30
11423;DHT22;5768;51.476;7.210;2022-09-28T18:05:58;11.90;18.20
11423;DHT22;5768;51.476;7.210;2022-09-28T18:11:04;12.00;18.40
11423;DHT22;5768;51.476;7.210;2022-09-28T18:16:07;11.80;18.30
11423;DHT22;5768;51.476;7.210;2022-09-28T18:21:10;12.10;18.30
11423;DHT22;5768;51.476;7.210;2022-09-28T18:26:12;12.20;18.20
11423;DHT22;5768;51.476;7.210;2022-09-28T18:31:17;11.70;18.40
11423;DHT22;5768;51.476;7.210;2022-09-28T18:36:19;11.90;18.40
11423;DHT22;5768;51.476;7.210;2022-09-28T18:41:22;12.10;18.40
11423;DHT22;5768;51.476;7.210;2022-09-28T18:46:25;12.20;18.30
11423;DHT22;5768;51.476;7.210;2022-09-28T18:51:28;12.10;18.30
11423;DHT22;5768;51.476;7.210;2022-09-28T18:56:30;12.20;18.20
11423;DHT22;5768;51.476;7.210;2022-09-28T19:01:35;12.30;18.40
11423;DHT22;5768;51.476;7.210;2022-09-28T19:06:38;12.20;18.40
11423;DHT22;5768;51.476;7.210;2022-09-28T19:11:41;12.10;18.70
11423;DHT22;5768;51.476;7.210;2022-09-28T19:16:44;11.90;18.80
11423;DHT22;5768;51.476;7.210;2022-09-28T19:21:47;11.80;18.90
11423;DHT22;5768;51.476;7.210;2022-09-28T19:26:49;11.80;18.90
11423;DHT22;5768;51.476;7.210;2022-09-28T19:31:54;11.90;18.80
11423;DHT22;5768;51.476;7.210;2022-09-28T19:36:57;11.90;18.80
11423;DHT22;5768;51.476;7.210;2022-09-28T19:42:03;11.80;18.90
11423;DHT22;5768;51.476;7.210;2022-09-28T19:47:07;11.80;18.90
11423;DHT22;5768;51.476;7.210;2022-09-28T19:52:12;11.70;19.00
11423;DHT22;5768;51.476;7.210;2022-09-28T19:57:15;11.80;19.10
11423;DHT22;5768;51.476;7.210;2022-09-28T20:02:20;11.50;19.40
11423;DHT22;5768;51.476;7.210;2022-09-28T20:07:23;11.30;19.30
11423;DHT22;5768;51.476;7.210;2022-09-28T20:12:25;11.40;19.30
11423;DHT22;5768;51.476;7.210;2022-09-28T20:17:28;11.40;19.10
11423;DHT22;5768;51.476;7.210;2022-09-28T20:22:30;11.20;19.20
11423;DHT22;5768;51.476;7.210;2022-09-28T20:27:32;11.10;19.40
11423;DHT22;5768;51.476;7.210;2022-09-28T20:32:36;10.90;19.40
11423;DHT22;5768;51.476;7.210;2022-09-28T20:37:38;10.70;19.80
11423;DHT22;5768;51.476;7.210;2022-09-28T20:42:41;10.70;19.90
11423;DHT22;5768;51.476;7.210;2022-09-28T20:47:46;10.70;19.90
11423;DHT22;5768;51.476;7.210;2022-09-28T20:52:48;10.70;19.90
11423;DHT22;5768;51.476;7.210;2022-09-28T20:57:50;10.70;19.90
11423;DHT22;5768;51.476;7.210;2022-09-28T21:02:54;10.70;20.00
11423;DHT22;5768;51.476;7.210;2022-09-28T21:07:57;10.50;20.00
11423;DHT22;5768;51.476;7.210;2022-09-28T21:12:59;10.50;19.90
11423;DHT22;5768;51.476;7.210;2022-09-28T21:18:03;10.50;19.80
11423;DHT22;5768;51.476;7.210;2022-09-28T21:23:05;10.40;20.00
11423;DHT22;5768;51.476;7.210;2022-09-28T21:28:07;10.40;20.00
11423;DHT22;5768;51.476;7.210;2022-09-28T21:33:11;10.40;20.10
11423;DHT22;5768;51.476;7.210;2022-09-28T21:38:13;10.40;20.10
11423;DHT22;5768;51.476;7.210;2022-09-28T21:43:15;10.30;20.10
11423;DHT22;5768;51.476;7.210;2022-09-28T21:48:19;10.30;20.10
11423;DHT22;5768;51.476;7.210;2022-09-28T21:53:22;10.30;20.20
11423;DHT22;5768;51.476;7.210;2022-09-28T21:58:26;10.60;20.00
11423;DHT22;5768;51.476;7.210;2022-09-28T22:03:32;10.60;19.80
11423;DHT22;5768;51.476;7.210;2022-09-28T22:08:36;10.50;19.70
11423;DHT22;5768;51.476;7.210;2022-09-28T22:13:40;10.50;19.80
11423;DHT22;5768;51.476;7.210;2022-09-28T22:18:45;10.40;20.00
11423;DHT22;5768;51.476;7.210;2022-09-28T22:23:48;10.30;20.10
11423;DHT22;5768;51.476;7.210;2022-09-28T22:28:52;10.30;20.20
11423;DHT22;5768;51.476;7.210;2022-09-28T22:33:57;10.20;20.50
11423;DHT22;5768;51.476;7.210;2022-09-28T22:39:00;10.10;20.50
11423;DHT22;5768;51.476;7.210;2022-09-28T22:44:02;10.10;20.60
11423;DHT22;5768;51.476;7.210;2022-09-28T22:49:07;10.00;20.90
11423;DHT22;5768;51.476;7.210;2022-09-28T22:54:11;10.00;21.00
11423;DHT22;5768;51.476;7.210;2022-09-28T22:59:15;9.90;21.00
11423;DHT22;5768;51.476;7.210;2022-09-28T23:04:19;9.90;21.10
11423;DHT22;5768;51.476;7.210;2022-09-28T23:09:21;9.90;21.30
11423;DHT22;5768;51.476;7.210;2022-09-28T23:14:23;9.80;21.40
11423;DHT22;5768;51.476;7.210;2022-09-28T23:19:27;9.80;21.60
11423;DHT22;5768;51.476;7.210;2022-09-28T23:24:29;9.70;21.80
11423;DHT22;5768;51.476;7.210;2022-09-28T23:29:31;9.70;21.50
11423;DHT22;5768;51.476;7.210;2022-09-28T23:34:34;9.70;21.50
11423;DHT22;5768;51.476;7.210;2022-09-28T23:39:37;9.60;21.80
11423;DHT22;5768;51.476;7.210;2022-09-28T23:44:39;9.50;21.80
11423;DHT22;5768;51.476;7.210;2022-09-28T23:49:42;9.60;21.80
11423;DHT22;5768;51.476;7.210;2022-09-28T23:54:45;9.50;21.60
11423;DHT22;5768;51.476;7.210;2022-09-28T23:59:47;9.50;21.60
